createdAt,value
2019-04-01T00:00:34.666Z,34.00
2019-04-01T00:03:03.671Z,32.70
2019-04-01T00:05:31.933Z,34.33
2019-04-01T00:08:00.156Z,33.37
2019-04-01T00:10:28.482Z,34.30
2019-04-01T00:12:56.704Z,33.73
2019-04-01T00:15:24.968Z,34.53
2019-04-01T00:17:53.192Z,33.40
2019-04-01T00:20:21.523Z,35.43
2019-04-01T00:22:49.937Z,34.37
2019-04-01T00:25:18.183Z,34.87
2019-04-01T00:27:46.418Z,33.40
2019-04-01T00:30:14.744Z,33.17
2019-04-01T00:32:43.040Z,32.80
2019-04-01T00:35:14.550Z,33.80
2019-04-01T00:37:52.437Z,32.00
2019-04-01T00:40:30.002Z,33.00
2019-04-01T00:43:02.037Z,33.93
2019-04-01T00:45:33.082Z,32.93
2019-04-01T00:48:01.814Z,33.07
2019-04-01T00:50:30.122Z,31.97
2019-04-01T00:52:58.405Z,33.03
2019-04-01T00:55:26.642Z,31.40
2019-04-01T00:57:54.906Z,30.47
2019-04-01T01:00:23.136Z,31.37
2019-04-01T01:02:51.373Z,31.00
2019-04-01T01:05:19.631Z,29.77
2019-04-01T01:07:47.869Z,28.40
2019-04-01T01:10:16.201Z,28.70
2019-04-01T01:12:44.493Z,29.07
2019-04-01T01:15:12.753Z,28.57
2019-04-01T01:17:40.989Z,29.73
2019-04-01T01:20:09.307Z,28.83
2019-04-01T01:22:37.610Z,27.40
2019-04-01T01:25:05.941Z,28.70
2019-04-01T01:27:34.240Z,28.73
2019-04-01T01:30:02.724Z,28.40
2019-04-01T01:32:30.982Z,28.20
2019-04-01T01:34:59.210Z,27.97
2019-04-01T01:37:27.544Z,25.80
2019-04-01T01:39:56.429Z,25.40
2019-04-01T01:42:24.763Z,26.60
2019-04-01T01:44:53.065Z,26.43
2019-04-01T01:47:21.388Z,25.83
2019-04-01T01:49:49.620Z,26.70
2019-04-01T01:52:17.880Z,25.87
2019-04-01T01:54:46.105Z,24.73
2019-04-01T01:57:14.365Z,24.83
2019-04-01T01:59:42.592Z,27.13
2019-04-01T02:02:10.862Z,26.33
2019-04-01T02:04:39.088Z,25.30
2019-04-01T02:07:07.352Z,24.53
2019-04-01T02:09:35.596Z,25.27
2019-04-01T02:12:03.912Z,25.23
2019-04-01T02:14:32.135Z,26.20
2019-04-01T02:17:00.397Z,25.30
2019-04-01T02:19:28.623Z,27.93
2019-04-01T02:21:56.880Z,29.20
2019-04-01T02:24:25.105Z,29.13
2019-04-01T02:26:53.513Z,28.87
2019-04-01T02:29:21.670Z,28.27
2019-04-01T02:31:49.934Z,27.83
2019-04-01T02:34:18.235Z,27.70
2019-04-01T02:36:46.492Z,28.77
2019-04-01T02:39:14.716Z,27.87
2019-04-01T02:41:43.045Z,27.97
2019-04-01T02:44:11.325Z,29.00
2019-04-01T02:46:39.584Z,26.37
2019-04-01T02:49:07.893Z,25.93
2019-04-01T02:51:36.147Z,27.80
2019-04-01T02:54:04.445Z,27.63
2019-04-01T02:56:32.713Z,27.13
2019-04-01T02:59:01.001Z,26.57
2019-04-01T03:01:29.270Z,27.87
2019-04-01T03:03:57.515Z,27.07
2019-04-01T03:06:25.861Z,25.67
2019-04-01T03:08:56.771Z,25.10
2019-04-01T03:11:25.098Z,23.37
2019-04-01T03:13:53.319Z,22.33
2019-04-01T03:16:21.572Z,21.60
2019-04-01T03:18:49.810Z,21.87
2019-04-01T03:21:18.141Z,21.43
2019-04-01T03:23:46.378Z,19.90
2019-04-01T03:26:14.637Z,20.17
2019-04-01T03:28:42.861Z,19.77
2019-04-01T03:31:11.170Z,18.57
2019-04-01T03:33:39.595Z,19.67
2019-04-01T03:36:07.966Z,18.63
2019-04-01T03:38:36.192Z,17.23
2019-04-01T03:41:04.447Z,17.30
2019-04-01T03:43:32.684Z,18.83
2019-04-01T03:46:04.290Z,17.60
2019-04-01T03:48:40.989Z,17.80
2019-04-01T03:51:11.567Z,18.77
2019-04-01T03:53:39.906Z,16.77
2019-04-01T03:56:08.202Z,18.10
2019-04-01T03:58:36.539Z,17.03
2019-04-01T04:01:04.856Z,17.87
2019-04-01T04:03:33.187Z,17.97
2019-04-01T04:06:01.490Z,17.67
2019-04-01T04:08:29.755Z,18.10
2019-04-01T04:10:57.987Z,19.07
2019-04-01T04:13:26.394Z,19.00
2019-04-01T04:15:54.766Z,18.70
2019-04-01T04:18:23.041Z,20.83
2019-04-01T04:20:51.344Z,19.67
2019-04-01T04:23:19.676Z,19.83
2019-04-01T04:25:49.536Z,19.70
2019-04-01T04:28:17.961Z,19.83
2019-04-01T04:30:46.361Z,19.53
2019-04-01T04:33:34.065Z,18.47
2019-04-01T04:36:02.363Z,16.80
2019-04-01T04:38:30.708Z,17.53
2019-04-01T04:40:59.663Z,17.43
2019-04-01T04:43:27.916Z,18.30
2019-04-01T04:45:56.145Z,16.43
2019-04-01T04:48:24.417Z,17.10
2019-04-01T04:50:52.732Z,17.23
2019-04-01T04:53:20.987Z,16.60
2019-04-01T04:55:49.247Z,14.83
2019-04-01T04:58:17.485Z,16.03
2019-04-01T05:00:45.751Z,16.47
2019-04-01T05:03:14.056Z,15.67
2019-04-01T05:05:42.516Z,15.40
2019-04-01T05:08:10.787Z,16.20
2019-04-01T05:10:39.010Z,15.77
2019-04-01T05:13:07.277Z,15.63
2019-04-01T05:15:35.581Z,16.60
2019-04-01T05:18:04.004Z,16.27
2019-04-01T05:20:32.572Z,16.10
2019-04-01T05:23:00.875Z,15.53
2019-04-01T05:25:31.939Z,15.67
2019-04-01T05:28:01.644Z,16.97
2019-04-01T05:30:30.674Z,16.23
2019-04-01T05:33:00.474Z,16.30
2019-04-01T05:35:29.304Z,15.93
2019-04-01T05:37:57.598Z,15.63
2019-04-01T05:40:25.854Z,16.40
2019-04-01T05:42:54.076Z,15.30
2019-04-01T05:45:22.411Z,15.60
2019-04-01T05:47:52.768Z,15.43
2019-04-01T05:50:21.093Z,14.73
2019-04-01T05:52:49.388Z,14.73
2019-04-01T05:55:17.663Z,15.33
2019-04-01T05:57:45.957Z,12.90
2019-04-01T06:00:20.931Z,13.93
2019-04-01T06:02:49.717Z,13.37
2019-04-01T06:05:18.008Z,13.03
2019-04-01T06:07:46.336Z,13.53
2019-04-01T06:10:14.635Z,12.67
2019-04-01T06:12:42.972Z,13.03
2019-04-01T06:15:13.525Z,12.73
2019-04-01T06:17:41.854Z,14.07
2019-04-01T06:20:10.145Z,13.47
2019-04-01T06:22:38.577Z,12.50
2019-04-01T06:25:07.311Z,10.33
2019-04-01T06:27:36.299Z,9.43
2019-04-01T06:30:06.096Z,9.13
2019-04-01T06:32:34.376Z,8.37
2019-04-01T06:35:03.302Z,7.37
2019-04-01T06:37:31.525Z,7.93
2019-04-01T06:39:59.852Z,7.60
2019-04-01T06:42:28.140Z,7.20
2019-04-01T06:44:56.377Z,7.83
2019-04-01T06:47:24.697Z,6.50
2019-04-01T06:49:53.000Z,5.87
2019-04-01T06:52:21.326Z,6.70
2019-04-01T06:54:49.615Z,6.17
2019-04-01T06:57:17.940Z,6.83
2019-04-01T06:59:46.753Z,6.10
2019-04-01T07:02:18.000Z,6.40
2019-04-01T07:04:46.892Z,6.07
2019-04-01T07:07:19.205Z,6.47
2019-04-01T07:09:45.152Z,6.77
2019-04-01T07:12:13.477Z,6.73
2019-04-01T07:14:41.773Z,6.67
2019-04-01T07:17:10.061Z,7.23
2019-04-01T07:19:38.434Z,7.60
2019-04-01T07:22:06.617Z,7.83
2019-04-01T07:24:34.940Z,7.50
2019-04-01T07:27:03.237Z,7.37
2019-04-01T07:29:31.632Z,7.07
2019-04-01T07:31:59.878Z,7.27
2019-04-01T07:34:28.218Z,8.67
2019-04-01T07:36:56.435Z,7.90
2019-04-01T07:39:24.763Z,8.03
2019-04-01T07:41:53.062Z,7.93
2019-04-01T07:44:21.379Z,8.47
2019-04-01T07:46:49.674Z,8.40
2019-04-01T07:49:17.977Z,7.97
2019-04-01T07:51:46.309Z,8.90
2019-04-01T07:54:18.304Z,9.10
2019-04-01T07:56:44.580Z,9.03
2019-04-01T07:59:13.065Z,8.63
2019-04-01T08:01:41.384Z,9.70
2019-04-01T08:04:21.017Z,8.70
2019-04-01T08:06:40.737Z,8.77
2019-04-01T08:09:09.042Z,9.53
2019-04-01T08:11:37.333Z,9.47
2019-04-01T08:14:05.668Z,8.47
2019-04-01T08:16:33.957Z,8.87
2019-04-01T08:19:02.285Z,8.87
2019-04-01T08:21:30.606Z,9.83
2019-04-01T08:23:58.933Z,9.63
2019-04-01T08:26:27.330Z,11.00
2019-04-01T08:28:55.650Z,10.10
2019-04-01T08:31:23.931Z,9.63
2019-04-01T08:33:52.252Z,9.90
2019-04-01T08:36:20.510Z,10.63
2019-04-01T08:38:48.739Z,10.40
2019-04-01T08:41:17.536Z,10.87
2019-04-01T08:43:45.865Z,10.40
2019-04-01T08:46:14.172Z,10.83
2019-04-01T08:48:42.801Z,11.03
2019-04-01T08:51:11.105Z,11.10
2019-04-01T08:53:39.434Z,11.07
2019-04-01T08:56:07.734Z,11.37
2019-04-01T08:58:36.137Z,11.37
2019-04-01T09:01:05.064Z,11.67
2019-04-01T09:03:33.371Z,11.07
2019-04-01T09:06:01.788Z,11.80
2019-04-01T09:08:31.096Z,11.50
2019-04-01T09:10:59.428Z,11.93
2019-04-01T09:13:28.128Z,12.23
2019-04-01T09:15:57.157Z,11.43
2019-04-01T09:18:25.460Z,12.00
2019-04-01T09:20:53.764Z,11.67
2019-04-01T09:23:21.994Z,11.67
2019-04-01T09:25:50.301Z,11.60
2019-04-01T09:28:18.576Z,11.23
2019-04-01T09:30:46.878Z,12.40
2019-04-01T09:33:15.200Z,10.33
2019-04-01T09:35:43.445Z,11.00
2019-04-01T09:38:11.713Z,11.67
2019-04-01T09:40:40.009Z,10.97
2019-04-01T09:43:08.336Z,12.27
2019-04-01T09:45:36.569Z,11.83
2019-04-01T09:48:04.897Z,11.30
2019-04-01T09:50:33.129Z,11.80
2019-04-01T09:53:01.365Z,11.93
2019-04-01T09:55:29.636Z,12.07
2019-04-01T09:57:57.860Z,12.77
2019-04-01T10:00:26.187Z,12.27
2019-04-01T10:02:54.414Z,13.10
2019-04-01T10:05:22.673Z,12.17
2019-04-01T10:07:51.117Z,11.70
2019-04-01T10:10:19.812Z,13.10
2019-04-01T10:12:48.118Z,13.27
2019-04-01T10:15:16.451Z,13.30
2019-04-01T10:17:44.673Z,12.43
2019-04-01T10:20:13.477Z,12.77
2019-04-01T10:22:41.805Z,13.40
2019-04-01T10:25:10.098Z,12.70
2019-04-01T10:27:38.429Z,12.93
2019-04-01T10:30:07.834Z,13.23
2019-04-01T10:32:36.163Z,13.57
2019-04-01T10:35:05.925Z,13.07
2019-04-01T10:37:34.225Z,13.73
2019-04-01T10:40:02.552Z,14.20
2019-04-01T10:42:30.861Z,13.80
2019-04-01T10:44:59.113Z,13.23
2019-04-01T10:47:27.376Z,13.10
2019-04-01T10:49:55.774Z,14.13
2019-04-01T10:52:24.087Z,15.50
2019-04-01T10:54:52.379Z,13.40
2019-04-01T10:57:20.662Z,13.37
2019-04-01T10:59:48.904Z,13.40
2019-04-01T11:02:18.564Z,12.87
2019-04-01T11:04:47.222Z,14.33
2019-04-01T11:07:25.309Z,13.73
2019-04-01T11:09:53.552Z,14.17
2019-04-01T11:12:33.388Z,13.90
2019-04-01T11:15:01.653Z,13.83
2019-04-01T11:17:29.892Z,13.80
2019-04-01T11:19:58.215Z,13.97
2019-04-01T11:22:26.517Z,14.17
2019-04-01T11:24:54.812Z,14.03
2019-04-01T11:27:23.164Z,13.37
2019-04-01T11:29:51.318Z,15.40
2019-04-01T11:32:19.653Z,14.83
2019-04-01T11:34:47.905Z,14.63
2019-04-01T11:37:16.222Z,15.40
2019-04-01T11:39:44.590Z,15.43
2019-04-01T11:42:12.920Z,15.37
2019-04-01T11:44:41.254Z,15.70
2019-04-01T11:47:09.563Z,15.67
2019-04-01T11:49:37.862Z,15.70
2019-04-01T11:52:06.149Z,19.07
2019-04-01T11:54:34.396Z,16.33
2019-04-01T11:57:02.736Z,16.00
2019-04-01T11:59:30.958Z,16.77
2019-04-01T12:01:59.216Z,16.93
2019-04-01T12:04:27.451Z,16.30
2019-04-01T12:06:55.780Z,15.57
2019-04-01T12:09:24.112Z,16.53
2019-04-01T12:11:52.368Z,15.83
2019-04-01T12:14:20.626Z,17.17
2019-04-01T12:16:48.889Z,15.90
2019-04-01T12:19:18.251Z,16.07
2019-04-01T12:21:46.943Z,15.03
2019-04-01T12:24:15.248Z,27.30
2019-04-01T12:26:43.547Z,14.73
2019-04-01T12:29:12.598Z,15.63
2019-04-01T12:31:41.989Z,16.30
2019-04-01T12:34:10.261Z,15.00
2019-04-01T12:36:38.501Z,16.17
2019-04-01T12:39:07.529Z,14.63
2019-04-01T12:41:35.858Z,15.10
2019-04-01T12:44:04.587Z,14.07
2019-04-01T12:46:32.884Z,20.80
2019-04-01T12:49:01.149Z,14.80
2019-04-01T12:51:29.437Z,15.23
2019-04-01T12:53:57.703Z,19.60
2019-04-01T12:56:26.009Z,17.53
2019-04-01T12:58:54.688Z,14.30
2019-04-01T13:01:23.357Z,15.23
2019-04-01T13:03:51.624Z,15.10
2019-04-01T13:06:19.845Z,15.63
2019-04-01T13:08:48.083Z,14.33
2019-04-01T13:11:16.400Z,14.97
2019-04-01T13:13:44.778Z,14.87
2019-04-01T13:16:13.329Z,14.70
2019-04-01T13:18:41.557Z,14.13
2019-04-01T13:21:10.996Z,30.87
2019-04-01T13:23:39.618Z,14.50
2019-04-01T13:26:07.948Z,15.00
2019-04-01T13:28:36.219Z,14.63
2019-04-01T13:31:04.420Z,13.97
2019-04-01T13:33:32.661Z,14.37
2019-04-01T13:36:00.888Z,14.00
2019-04-01T13:38:29.522Z,15.33
2019-04-01T13:40:58.067Z,13.97
2019-04-01T13:43:26.928Z,14.80
2019-04-01T13:45:58.269Z,13.93
2019-04-01T13:48:27.106Z,14.17
2019-04-01T13:50:56.525Z,13.90
2019-04-01T13:53:24.845Z,14.30
2019-04-01T13:55:53.272Z,13.47
2019-04-01T13:58:22.010Z,14.00
2019-04-01T14:00:51.036Z,15.43
2019-04-01T14:03:20.335Z,14.83
2019-04-01T14:05:49.313Z,14.73
2019-04-01T14:08:18.634Z,13.17
2019-04-01T14:10:46.967Z,14.30
2019-04-01T14:13:15.296Z,14.90
2019-04-01T14:15:43.958Z,15.10
2019-04-01T14:18:12.847Z,21.97
2019-04-01T14:20:41.137Z,14.23
2019-04-01T14:23:09.579Z,14.47
2019-04-01T14:25:38.276Z,14.90
2019-04-01T14:28:06.466Z,14.50
2019-04-01T14:30:36.170Z,14.33
2019-04-01T14:33:04.803Z,14.57
2019-04-01T14:35:33.192Z,14.37
2019-04-01T14:38:01.729Z,14.60
2019-04-01T14:40:32.584Z,13.97
2019-04-01T14:42:59.868Z,15.23
2019-04-01T14:45:28.240Z,14.57
2019-04-01T14:47:58.102Z,14.17
2019-04-01T14:50:26.645Z,14.30
2019-04-01T14:52:55.074Z,15.23
2019-04-01T14:55:23.581Z,14.50
2019-04-01T14:57:51.816Z,14.57
2019-04-01T15:00:20.110Z,14.50
2019-04-01T15:02:48.428Z,14.13
2019-04-01T15:05:16.673Z,14.40
2019-04-01T15:07:46.957Z,15.03
2019-04-01T15:10:15.705Z,14.60
2019-04-01T15:12:44.055Z,13.53
2019-04-01T15:15:12.348Z,15.07
2019-04-01T15:17:40.669Z,14.57
2019-04-01T15:20:09.309Z,14.97
2019-04-01T15:22:37.635Z,15.07
2019-04-01T15:25:06.646Z,13.93
2019-04-01T15:27:35.053Z,14.63
2019-04-01T15:30:03.636Z,13.50
2019-04-01T15:32:31.964Z,14.50
2019-04-01T15:35:00.222Z,14.70
2019-04-01T15:37:31.925Z,14.73
2019-04-01T15:39:58.434Z,14.90
2019-04-01T15:42:26.709Z,15.73
2019-04-01T15:44:54.936Z,14.03
2019-04-01T15:47:23.206Z,14.20
2019-04-01T15:49:51.438Z,14.23
2019-04-01T15:52:19.766Z,13.73
2019-04-01T15:54:47.997Z,14.50
2019-04-01T15:57:16.289Z,14.60
2019-04-01T15:59:44.569Z,14.70
2019-04-01T16:02:12.893Z,14.53
2019-04-01T16:04:41.168Z,15.00
2019-04-01T16:07:09.458Z,14.10
2019-04-01T16:09:37.724Z,14.13
2019-04-01T16:12:06.035Z,14.50
2019-04-01T16:14:34.287Z,14.87
2019-04-01T16:17:02.507Z,14.43
2019-04-01T16:19:30.769Z,15.03
2019-04-01T16:21:59.066Z,15.53
2019-04-01T16:24:27.316Z,14.37
2019-04-01T16:26:55.543Z,14.43
2019-04-01T16:29:23.868Z,15.17
2019-04-01T16:31:55.171Z,14.03
2019-04-01T16:34:22.167Z,14.70
2019-04-01T16:36:50.460Z,16.33
2019-04-01T16:39:18.726Z,14.93
2019-04-01T16:41:49.937Z,14.10
2019-04-01T16:44:16.908Z,13.40
2019-04-01T16:46:45.232Z,13.50
2019-04-01T16:49:13.540Z,14.00
2019-04-01T16:51:43.449Z,14.73
2019-04-01T16:54:11.751Z,14.33
2019-04-01T16:56:39.977Z,13.97
2019-04-01T16:59:08.304Z,14.43
2019-04-01T17:01:36.643Z,15.23
2019-04-01T17:04:04.865Z,15.50
2019-04-01T17:06:33.122Z,14.13
2019-04-01T17:09:01.344Z,15.17
2019-04-01T17:11:30.917Z,15.30
2019-04-01T17:14:01.341Z,15.13
2019-04-01T17:16:29.653Z,14.57
2019-04-01T17:18:57.936Z,14.57
2019-04-01T17:21:26.423Z,13.93
2019-04-01T17:23:54.764Z,13.80
2019-04-01T17:26:23.116Z,16.03
2019-04-01T17:28:51.526Z,14.47
2019-04-01T17:31:19.828Z,15.40
2019-04-01T17:33:48.156Z,14.33
2019-04-01T17:36:16.380Z,14.70
2019-04-01T17:38:47.892Z,15.20
2019-04-01T17:41:14.650Z,15.40
2019-04-01T17:43:42.983Z,15.20
2019-04-01T17:46:11.570Z,13.73
2019-04-01T17:48:39.828Z,14.67
2019-04-01T17:51:08.123Z,14.73
2019-04-01T17:53:36.371Z,14.30
2019-04-01T17:56:06.182Z,13.57
2019-04-01T17:58:35.303Z,14.77
2019-04-01T18:01:03.760Z,13.87
2019-04-01T18:03:32.038Z,14.47
2019-04-01T18:06:01.011Z,13.93
2019-04-01T18:08:29.300Z,15.27
2019-04-01T18:10:57.811Z,14.53
2019-04-01T18:13:26.353Z,14.67
2019-04-01T18:15:57.390Z,15.10
2019-04-01T18:18:26.995Z,14.80
2019-04-01T18:20:55.222Z,14.13
2019-04-01T18:23:23.552Z,14.97
2019-04-01T18:25:51.773Z,14.67
2019-04-01T18:28:20.000Z,14.50
2019-04-01T18:30:48.755Z,14.73
2019-04-01T18:33:19.820Z,14.83
2019-04-01T18:35:47.272Z,15.20
2019-04-01T18:38:17.062Z,15.20
2019-04-01T18:40:45.569Z,14.93
2019-04-01T18:43:13.876Z,14.87
2019-04-01T18:45:42.107Z,15.13
2019-04-01T18:48:10.346Z,14.53
2019-04-01T18:50:38.672Z,14.70
2019-04-01T18:53:07.354Z,14.67
2019-04-01T18:55:36.019Z,14.77
2019-04-01T18:58:04.351Z,14.63
2019-04-01T19:00:32.565Z,15.27
2019-04-01T19:03:00.821Z,14.80
2019-04-01T19:05:29.090Z,14.80
2019-04-01T19:07:57.374Z,14.83
2019-04-01T19:10:25.631Z,14.57
2019-04-01T19:13:05.134Z,15.10
2019-04-01T19:15:24.473Z,15.87
2019-04-01T19:17:53.549Z,15.30
2019-04-01T19:20:21.780Z,13.97
2019-04-01T19:22:50.037Z,15.13
2019-04-01T19:25:18.327Z,15.97
2019-04-01T19:27:46.589Z,14.20
2019-04-01T19:30:15.350Z,15.43
2019-04-01T19:32:43.848Z,16.00
2019-04-01T19:35:12.433Z,16.23
2019-04-01T19:37:40.698Z,16.10
2019-04-01T19:40:09.092Z,16.43
2019-04-01T19:42:56.697Z,15.63
2019-04-01T19:45:25.072Z,16.50
2019-04-01T19:47:53.292Z,15.13
2019-04-01T19:50:21.721Z,15.13
2019-04-01T19:52:50.173Z,15.97
2019-04-01T19:55:18.433Z,17.10
2019-04-01T19:57:46.744Z,16.70
2019-04-01T20:00:27.246Z,16.13
2019-04-01T20:02:45.666Z,15.53
2019-04-01T20:05:14.060Z,17.17
2019-04-01T20:07:44.298Z,15.40
2019-04-01T20:10:12.943Z,17.10
2019-04-01T20:12:41.206Z,16.50
2019-04-01T20:15:11.941Z,16.83
2019-04-01T20:17:40.066Z,16.13
2019-04-01T20:20:08.801Z,15.83
2019-04-01T20:22:37.051Z,15.47
2019-04-01T20:25:06.822Z,15.90
2019-04-01T20:27:35.363Z,15.47
2019-04-01T20:30:05.512Z,15.73
2019-04-01T20:32:41.790Z,16.17
2019-04-01T20:35:22.578Z,15.43
2019-04-01T20:37:40.500Z,16.37
2019-04-01T20:40:09.487Z,15.90
2019-04-01T20:42:37.881Z,15.07
2019-04-01T20:45:11.120Z,15.80
2019-04-01T20:47:40.023Z,16.03
2019-04-01T20:50:08.908Z,15.83
2019-04-01T20:52:37.430Z,15.73
2019-04-01T20:55:06.343Z,15.53
2019-04-01T20:57:34.665Z,16.70
2019-04-01T21:00:03.026Z,16.37
2019-04-01T21:02:32.156Z,16.77
2019-04-01T21:05:01.167Z,16.90
2019-04-01T21:07:29.727Z,16.70
2019-04-01T21:09:57.948Z,16.27
2019-04-01T21:12:26.208Z,16.47
2019-04-01T21:14:56.134Z,16.30
2019-04-01T21:17:24.807Z,17.57
2019-04-01T21:19:53.035Z,16.33
2019-04-01T21:22:22.134Z,17.37
2019-04-01T21:24:50.591Z,15.77
2019-04-01T21:27:18.888Z,16.30
2019-04-01T21:29:47.107Z,17.63
2019-04-01T21:32:16.150Z,17.67
2019-04-01T21:34:45.401Z,16.77
2019-04-01T21:37:13.744Z,17.30
2019-04-01T21:39:41.975Z,18.70
2019-04-01T21:42:10.238Z,17.30
2019-04-01T21:44:38.456Z,16.63
2019-04-01T21:47:06.726Z,17.53
2019-04-01T21:49:36.871Z,16.63
2019-04-01T21:52:05.101Z,16.77
2019-04-01T21:54:33.711Z,17.67
2019-04-01T21:57:01.976Z,17.90
2019-04-01T21:59:30.275Z,17.50
2019-04-01T22:01:58.777Z,16.47
2019-04-01T22:04:27.218Z,16.90
2019-04-01T22:06:55.508Z,17.03
2019-04-01T22:09:23.755Z,16.83
2019-04-01T22:11:52.011Z,17.03
2019-04-01T22:14:20.255Z,17.87
2019-04-01T22:16:48.588Z,17.00
2019-04-01T22:19:16.827Z,17.63
2019-04-01T22:21:45.057Z,16.90
2019-04-01T22:24:13.328Z,16.97
2019-04-01T22:26:41.549Z,17.40
2019-04-01T22:29:09.809Z,15.47
2019-04-01T22:31:38.045Z,16.83
2019-04-01T22:34:06.336Z,17.20
2019-04-01T22:36:34.637Z,16.53
2019-04-01T22:39:04.708Z,17.80
2019-04-01T22:41:33.169Z,17.30
2019-04-01T22:44:01.425Z,17.07
2019-04-01T22:46:29.656Z,17.07
2019-04-01T22:48:57.977Z,16.63
2019-04-01T22:51:26.209Z,16.63
2019-04-01T22:53:54.430Z,16.97
2019-04-01T22:56:22.752Z,16.87
2019-04-01T22:58:51.226Z,17.03
2019-04-01T23:01:19.904Z,16.63
2019-04-01T23:03:48.140Z,16.57
2019-04-01T23:06:16.392Z,16.70
2019-04-01T23:08:44.625Z,16.73
2019-04-01T23:11:12.875Z,18.33
2019-04-01T23:13:41.109Z,18.07
2019-04-01T23:16:09.436Z,15.87
2019-04-01T23:18:37.733Z,16.53
2019-04-01T23:21:05.988Z,16.27
2019-04-01T23:23:34.222Z,16.40
2019-04-01T23:26:02.443Z,15.93
2019-04-01T23:28:30.712Z,16.60
2019-04-01T23:30:58.955Z,17.77
2019-04-01T23:33:27.197Z,16.07
2019-04-01T23:35:55.492Z,16.80
2019-04-01T23:38:23.752Z,15.87
2019-04-01T23:40:51.978Z,15.80
2019-04-01T23:43:20.238Z,16.43
2019-04-01T23:45:49.147Z,15.87
2019-04-01T23:48:18.420Z,15.17
2019-04-01T23:50:46.649Z,15.60
2019-04-01T23:53:14.913Z,15.80
2019-04-01T23:55:43.132Z,17.37
2019-04-01T23:58:11.401Z,16.70
